createdAt,value
2022-09-09T00:01:56.199Z,100214.94
2022-09-09T00:04:29.995Z,100212.16
2022-09-09T00:07:06.811Z,100207.66
2022-09-09T00:09:46.273Z,100195.25
2022-09-09T00:12:19.236Z,100197.59
2022-09-09T00:14:53.577Z,100196.56
2022-09-09T00:17:35.598Z,100201.03
2022-09-09T00:20:14.046Z,100199.16
2022-09-09T00:22:48.448Z,100203.44
2022-09-09T00:25:24.159Z,100192.72
2022-09-09T00:27:53.441Z,100191.78
2022-09-09T00:30:25.121Z,100191.78
2022-09-09T00:32:59.172Z,100190.84
2022-09-09T00:35:32.152Z,100197.09
2022-09-09T00:38:11.493Z,100190.06
2022-09-09T00:40:50.977Z,100183.06
2022-09-09T00:43:32.501Z,100191.97
2022-09-09T00:46:42.144Z,100200.84
2022-09-09T00:49:24.040Z,100192.16
2022-09-09T00:52:06.302Z,100192.31
2022-09-09T00:54:46.746Z,100195.13
2022-09-09T00:57:29.128Z,100199.88
2022-09-09T01:00:21.897Z,100202.72
2022-09-09T01:03:13.260Z,100197.66
2022-09-09T01:05:51.831Z,100197.66
2022-09-09T01:08:40.409Z,100191.63
2022-09-09T01:11:17.936Z,100196.81
2022-09-09T01:13:49.134Z,100189.63
2022-09-09T01:16:18.917Z,100186.13
2022-09-09T01:18:51.658Z,100187.91
2022-09-09T01:21:32.038Z,100191.44
2022-09-09T01:24:22.487Z,100179.22
2022-09-09T01:27:09.856Z,100177.50
2022-09-09T01:29:38.692Z,100184.69
2022-09-09T01:32:43.250Z,100189.13
2022-09-09T01:35:21.420Z,100193.56
2022-09-09T01:37:50.086Z,100194.41
2022-09-09T01:40:19.164Z,100202.28
2022-09-09T01:42:51.071Z,100189.81
2022-09-09T01:45:19.664Z,100187.06
2022-09-09T01:47:49.056Z,100182.63
2022-09-09T01:50:35.190Z,100196.81
2022-09-09T01:53:04.892Z,100194.28
2022-09-09T01:55:41.440Z,100198.69
2022-09-09T01:58:31.377Z,100190.00
2022-09-09T02:01:12.296Z,100190.84
2022-09-09T02:03:42.876Z,100180.44
2022-09-09T02:06:29.609Z,100188.44
2022-09-09T02:09:09.481Z,100200.94
2022-09-09T02:11:37.968Z,100202.06
2022-09-09T02:14:25.720Z,100204.88
2022-09-09T02:17:00.172Z,100207.63
2022-09-09T02:19:43.160Z,100197.94
2022-09-09T02:22:26.199Z,100205.03
2022-09-09T02:24:59.417Z,100212.22
2022-09-09T02:27:30.474Z,100207.84
2022-09-09T02:30:03.049Z,100204.44
2022-09-09T02:32:44.507Z,100203.69
2022-09-09T02:35:19.481Z,100199.31
2022-09-09T02:37:48.693Z,100196.66
2022-09-09T02:40:18.570Z,100201.94
2022-09-09T02:42:51.684Z,100199.31
2022-09-09T02:45:29.390Z,100202.84
2022-09-09T02:48:11.564Z,100197.53
2022-09-09T02:50:49.261Z,100199.13
2022-09-09T02:53:22.948Z,100191.09
2022-09-09T02:55:59.464Z,100188.22
2022-09-09T02:58:28.236Z,100179.16
2022-09-09T03:01:03.908Z,100183.34
2022-09-09T03:03:33.633Z,100170.88
2022-09-09T03:06:06.670Z,100175.13
2022-09-09T03:08:35.207Z,100178.53
2022-09-09T03:11:03.589Z,100180.25
2022-09-09T03:13:35.334Z,100186.41
2022-09-09T03:16:06.649Z,100186.41
2022-09-09T03:18:40.536Z,100181.09
2022-09-09T03:21:09.340Z,100190.91
2022-09-09T03:23:39.219Z,100193.75
2022-09-09T03:26:08.252Z,100193.94
2022-09-09T03:28:42.676Z,100197.88
2022-09-09T03:31:13.026Z,100203.69
2022-09-09T03:33:43.421Z,100197.00
2022-09-09T03:36:15.019Z,100195.47
2022-09-09T03:38:43.304Z,100195.66
2022-09-09T03:41:13.747Z,100197.34
2022-09-09T03:43:42.843Z,100195.66
2022-09-09T03:46:12.738Z,100203.53
2022-09-09T03:48:41.341Z,100192.06
2022-09-09T03:51:09.546Z,100194.63
2022-09-09T03:53:39.092Z,100191.22
2022-09-09T03:56:09.185Z,100192.22
2022-09-09T03:58:39.004Z,100188.91
2022-09-09T04:01:14.366Z,100197.88
2022-09-09T04:03:45.611Z,100188.41
2022-09-09T04:06:16.032Z,100184.25
2022-09-09T04:08:49.489Z,100195.00
2022-09-09T04:11:17.908Z,100187.19
2022-09-09T04:13:48.015Z,100183.97
2022-09-09T04:16:17.810Z,100189.44
2022-09-09T04:18:46.650Z,100199.25
2022-09-09T04:21:17.101Z,100204.72
2022-09-09T04:23:45.299Z,100195.06
2022-09-09T04:26:16.325Z,100198.63
2022-09-09T04:28:46.675Z,100197.72
2022-09-09T04:31:24.446Z,100191.59
2022-09-09T04:33:56.020Z,100194.22
2022-09-09T04:36:24.795Z,100196.00
2022-09-09T04:38:57.002Z,100202.16
2022-09-09T04:41:25.595Z,100209.22
2022-09-09T04:43:57.962Z,100218.88
2022-09-09T04:46:27.752Z,100224.00
2022-09-09T04:48:56.000Z,100220.41
2022-09-09T04:51:29.214Z,100223.84
2022-09-09T04:53:57.855Z,100228.19
2022-09-09T04:56:27.854Z,100213.09
2022-09-09T04:58:59.415Z,100230.66
2022-09-09T05:01:42.104Z,100218.97
2022-09-09T05:04:10.599Z,100231.19
2022-09-09T05:06:38.903Z,100225.88
2022-09-09T05:09:07.560Z,100223.16
2022-09-09T05:11:37.690Z,100231.00
2022-09-09T05:14:25.047Z,100244.34
2022-09-09T05:16:55.131Z,100239.03
2022-09-09T05:19:24.889Z,100239.03
2022-09-09T05:21:54.701Z,100244.34
2022-09-09T05:24:29.470Z,100250.81
2022-09-09T05:27:02.601Z,100251.66
2022-09-09T05:29:31.154Z,100249.97
2022-09-09T05:32:01.090Z,100249.81
2022-09-09T05:34:30.154Z,100251.34
2022-09-09T05:36:59.464Z,100257.25
2022-09-09T05:39:28.461Z,100257.84
2022-09-09T05:41:56.663Z,100256.72
2022-09-09T05:44:28.563Z,100267.16
2022-09-09T05:46:58.507Z,100261.69
2022-09-09T05:49:28.270Z,100265.84
2022-09-09T05:51:56.924Z,100269.28
2022-09-09T05:54:26.235Z,100254.16
2022-09-09T05:56:56.620Z,100257.56
2022-09-09T05:59:25.505Z,100265.34
2022-09-09T06:01:56.647Z,100266.91
2022-09-09T06:04:35.160Z,100265.91
2022-09-09T06:07:04.184Z,100264.88
2022-09-09T06:09:32.671Z,100258.63
2022-09-09T06:12:01.298Z,100264.72
2022-09-09T06:14:29.723Z,100265.56
2022-09-09T06:17:00.984Z,100259.22
2022-09-09T06:19:34.433Z,100260.75
2022-09-09T06:22:03.414Z,100265.69
2022-09-09T06:24:35.243Z,100274.06
2022-09-09T06:27:06.313Z,100268.25
2022-09-09T06:29:37.099Z,100262.41
2022-09-09T06:32:06.021Z,100270.78
2022-09-09T06:34:36.511Z,100273.97
2022-09-09T06:37:05.729Z,100263.19
2022-09-09T06:39:49.283Z,100276.19
2022-09-09T06:42:18.012Z,100278.75
2022-09-09T06:44:53.243Z,100276.69
2022-09-09T06:47:34.600Z,100279.94
2022-09-09T06:50:06.339Z,100262.69
2022-09-09T06:52:36.363Z,100263.28
2022-09-09T06:55:06.320Z,100268.22
2022-09-09T06:57:37.933Z,100266.31
2022-09-09T07:00:20.957Z,100262.72
2022-09-09T07:02:51.959Z,100264.41
2022-09-09T07:05:22.220Z,100261.72
2022-09-09T07:07:50.483Z,100267.88
2022-09-09T07:10:21.247Z,100257.06
2022-09-09T07:12:54.055Z,100258.75
2022-09-09T07:15:24.437Z,100268.72
2022-09-09T07:17:53.096Z,100281.72
2022-09-09T07:20:23.013Z,100280.69
2022-09-09T07:22:52.052Z,100271.09
2022-09-09T07:25:21.882Z,100281.72
2022-09-09T07:27:50.564Z,100278.69
2022-09-09T07:30:24.271Z,100269.19
2022-09-09T07:32:58.102Z,100271.09
2022-09-09T07:35:28.808Z,100275.81
2022-09-09T07:37:57.088Z,100285.88
2022-09-09T07:40:25.724Z,100279.31
2022-09-09T07:42:55.150Z,100283.59
2022-09-09T07:45:23.858Z,100287.78
2022-09-09T07:47:53.682Z,100285.78
2022-09-09T07:50:22.398Z,100279.22
2022-09-09T07:52:54.409Z,100285.28
2022-09-09T07:55:25.101Z,100286.22
2022-09-09T07:57:55.008Z,100287.63
2022-09-09T08:00:24.625Z,100291.16
2022-09-09T08:02:57.075Z,100280.34
2022-09-09T08:05:26.023Z,100268.47
2022-09-09T08:07:56.001Z,100274.25
2022-09-09T08:10:25.101Z,100281.38
2022-09-09T08:13:16.845Z,100293.53
2022-09-09T08:15:45.500Z,100284.22
2022-09-09T08:18:14.972Z,100283.16
2022-09-09T08:20:43.375Z,100297.13
2022-09-09T08:23:13.259Z,100288.66
2022-09-09T08:25:41.761Z,100296.50
2022-09-09T08:28:11.085Z,100291.75
2022-09-09T08:30:39.925Z,100298.19
2022-09-09T08:33:09.092Z,100297.53
2022-09-09T08:35:37.391Z,100307.25
2022-09-09T08:38:10.690Z,100305.22
2022-09-09T08:40:45.995Z,100308.31
2022-09-09T08:43:18.601Z,100307.69
2022-09-09T08:46:00.997Z,100304.16
2022-09-09T08:48:53.869Z,100315.66
2022-09-09T08:51:22.624Z,100310.50
2022-09-09T08:53:57.655Z,100324.97
2022-09-09T08:56:33.325Z,100308.63
2022-09-09T08:59:05.000Z,100305.25
2022-09-09T09:02:02.590Z,100313.91
2022-09-09T09:05:01.114Z,100284.25
2022-09-09T09:07:46.838Z,100293.28
2022-09-09T09:10:42.068Z,100281.78
2022-09-09T09:13:21.988Z,100319.50
2022-09-09T09:15:59.954Z,100291.75
2022-09-09T09:18:29.835Z,100307.91
2022-09-09T09:21:06.242Z,100309.13
2022-09-09T09:23:44.524Z,100306.38
2022-09-09T09:26:13.453Z,100311.00
2022-09-09T09:28:43.951Z,100314.72
2022-09-09T09:31:17.326Z,100318.44
2022-09-09T09:33:53.732Z,100313.78
2022-09-09T09:36:35.042Z,100319.25
2022-09-09T09:41:56.291Z,100307.59
2022-09-09T09:44:29.260Z,100295.69
2022-09-09T09:47:10.797Z,100288.56
2022-09-09T09:49:40.585Z,100292.69
2022-09-09T09:52:19.552Z,100290.75
2022-09-09T09:54:48.048Z,100285.63
2022-09-09T09:57:18.662Z,100294.28
2022-09-09T09:59:50.323Z,100295.28
2022-09-09T10:02:27.713Z,100286.13
2022-09-09T10:05:06.431Z,100295.00
2022-09-09T10:07:38.323Z,100295.50
2022-09-09T10:10:15.349Z,100301.41
2022-09-09T10:13:00.322Z,100286.25
2022-09-09T10:15:46.637Z,100274.50
2022-09-09T10:18:40.408Z,100282.16
2022-09-09T10:21:44.376Z,100280.06
2022-09-09T10:25:07.075Z,100281.66
2022-09-09T10:27:45.245Z,100270.19
2022-09-09T10:30:20.148Z,100269.66
2022-09-09T10:32:56.751Z,100273.41
2022-09-09T10:35:34.358Z,100261.25
2022-09-09T10:38:19.697Z,100269.25
2022-09-09T10:41:20.237Z,100260.88
2022-09-09T10:44:36.555Z,100257.94
2022-09-09T10:47:21.942Z,100257.19
2022-09-09T10:50:24.335Z,100267.09
2022-09-09T10:53:04.395Z,100262.78
2022-09-09T10:55:43.116Z,100246.94
2022-09-09T10:58:20.264Z,100256.16
2022-09-09T11:00:57.888Z,100245.88
2022-09-09T11:03:32.044Z,100257.44
2022-09-09T11:06:06.967Z,100249.53
2022-09-09T11:08:40.065Z,100247.03
2022-09-09T11:11:17.761Z,100273.53
2022-09-09T11:13:52.542Z,100237.38
2022-09-09T11:16:30.929Z,100238.38
2022-09-09T11:19:06.931Z,100241.06
2022-09-09T11:21:43.035Z,100241.66
2022-09-09T11:24:18.163Z,100252.97
2022-09-09T11:26:53.505Z,100228.69
2022-09-09T11:30:27.177Z,100232.31
2022-09-09T11:33:50.242Z,100228.22
2022-09-09T11:36:57.628Z,100245.16
2022-09-09T11:39:55.777Z,100230.03
2022-09-09T11:42:26.865Z,100231.69
2022-09-09T11:44:55.737Z,100232.72
2022-09-09T11:47:30.869Z,100240.34
2022-09-09T11:50:13.246Z,100247.00
2022-09-09T11:52:46.956Z,100236.31
2022-09-09T11:55:30.563Z,100262.69
2022-09-09T11:58:01.278Z,100258.09
2022-09-09T12:00:39.077Z,100237.81
2022-09-09T12:03:09.976Z,100266.25
2022-09-09T12:05:41.659Z,100263.03
2022-09-09T12:08:13.753Z,100274.59
2022-09-09T12:10:42.771Z,100240.75
2022-09-09T12:13:20.183Z,100263.34
2022-09-09T12:15:54.602Z,100266.75
2022-09-09T12:18:26.702Z,100276.44
2022-09-09T12:21:04.602Z,100279.84
2022-09-09T12:23:48.073Z,100286.41
2022-09-09T12:26:32.432Z,100292.97
2022-09-09T12:29:14.615Z,100298.03
2022-09-09T12:31:50.779Z,100310.44
2022-09-09T12:34:33.540Z,100285.44
2022-09-09T12:37:08.285Z,100290.88
2022-09-09T12:39:43.043Z,100289.19
2022-09-09T12:42:20.874Z,100277.19
2022-09-09T12:44:58.403Z,100262.63
2022-09-09T12:47:41.481Z,100260.44
2022-09-09T12:50:20.928Z,100265.69
2022-09-09T12:52:51.567Z,100255.00
2022-09-09T12:55:26.225Z,100262.47
2022-09-09T12:57:54.514Z,100266.84
2022-09-09T13:00:26.146Z,100262.84
2022-09-09T13:02:57.078Z,100271.69
2022-09-09T13:05:27.524Z,100279.84
2022-09-09T13:08:04.012Z,100266.44
2022-09-09T13:10:52.894Z,100275.44
2022-09-09T13:13:27.553Z,100271.47
2022-09-09T13:15:59.113Z,100264.97
2022-09-09T13:18:32.488Z,100264.16
2022-09-09T13:21:01.443Z,100276.06
2022-09-09T13:23:33.286Z,100282.59
2022-09-09T13:26:08.602Z,100275.00
2022-09-09T13:28:37.084Z,100264.63
2022-09-09T13:31:08.006Z,100246.19
2022-09-09T13:33:38.530Z,100239.53
2022-09-09T13:36:10.411Z,100244.25
2022-09-09T13:38:42.806Z,100260.84
2022-09-09T13:41:13.584Z,100263.31
2022-09-09T13:43:48.229Z,100277.69
2022-09-09T13:46:31.087Z,100271.50
2022-09-09T13:49:00.409Z,100292.34
2022-09-09T13:51:38.079Z,100274.78
2022-09-09T13:54:08.172Z,100280.75
2022-09-09T13:56:39.857Z,100285.22
2022-09-09T13:59:13.097Z,100275.63
2022-09-09T14:01:41.863Z,100268.41
2022-09-09T14:04:11.475Z,100259.56
2022-09-09T14:06:41.448Z,100251.97
2022-09-09T14:09:13.964Z,100247.28
2022-09-09T14:11:44.456Z,100239.13
2022-09-09T14:14:12.661Z,100250.97
2022-09-09T14:16:40.949Z,100249.09
2022-09-09T14:19:10.446Z,100245.38
2022-09-09T14:21:38.970Z,100252.53
2022-09-09T14:24:08.233Z,100236.47
2022-09-09T14:26:36.443Z,100231.09
2022-09-09T14:29:06.011Z,100241.22
2022-09-09T14:31:34.635Z,100245.88
2022-09-09T14:34:03.172Z,100248.13
2022-09-09T14:36:31.411Z,100239.06
2022-09-09T14:39:00.011Z,100242.94
2022-09-09T14:41:30.431Z,100239.09
2022-09-09T14:43:59.571Z,100232.06
2022-09-09T14:46:29.551Z,100225.78
2022-09-09T14:48:57.763Z,100228.44
2022-09-09T14:51:28.232Z,100217.78
2022-09-09T14:53:59.181Z,100231.09
2022-09-09T14:56:30.508Z,100240.06
2022-09-09T14:59:01.677Z,100234.22
2022-09-09T15:01:33.047Z,100236.47
2022-09-09T15:04:03.872Z,100245.53
2022-09-09T15:06:34.928Z,100251.09
2022-09-09T15:09:04.040Z,100241.63
2022-09-09T15:11:38.630Z,100237.34
2022-09-09T15:14:07.934Z,100236.63
2022-09-09T15:16:38.036Z,100227.78
2022-09-09T15:19:06.412Z,100225.34
2022-09-09T15:21:37.808Z,100231.84
2022-09-09T15:24:08.203Z,100220.66
2022-09-09T15:26:39.476Z,100224.72
2022-09-09T15:29:08.982Z,100230.50
2022-09-09T15:31:38.853Z,100238.69
2022-09-09T15:34:09.612Z,100245.19
2022-09-09T15:36:39.301Z,100242.31
2022-09-09T15:39:10.591Z,100250.81
2022-09-09T15:41:39.267Z,100265.41
2022-09-09T15:44:08.135Z,100258.13
2022-09-09T15:46:39.275Z,100263.25
2022-09-09T15:49:11.460Z,100251.56
2022-09-09T15:51:43.599Z,100260.50
2022-09-09T15:54:14.203Z,100246.44
2022-09-09T15:56:43.624Z,100246.84
2022-09-09T15:59:12.202Z,100251.97
2022-09-09T16:01:43.086Z,100252.94
2022-09-09T16:04:12.215Z,100263.91
2022-09-09T16:06:40.950Z,100257.94
2022-09-09T16:09:10.959Z,100267.13
2022-09-09T16:11:40.867Z,100274.56
2022-09-09T16:14:09.630Z,100281.09
2022-09-09T16:16:38.228Z,100279.03
2022-09-09T16:19:10.546Z,100285.00
2022-09-09T16:21:41.829Z,100273.28
2022-09-09T16:24:12.810Z,100282.84
2022-09-09T16:26:43.928Z,100278.03
2022-09-09T16:29:12.555Z,100282.72
2022-09-09T16:31:41.498Z,100284.81
2022-09-09T16:34:11.999Z,100293.00
2022-09-09T16:36:42.852Z,100283.75
2022-09-09T16:39:14.194Z,100271.72
2022-09-09T16:41:46.056Z,100278.28
2022-09-09T16:44:17.996Z,100278.47
2022-09-09T16:46:49.531Z,100277.00
2022-09-09T16:49:19.237Z,100276.44
2022-09-09T16:51:49.552Z,100282.88
2022-09-09T16:54:19.294Z,100279.69
2022-09-09T16:56:50.003Z,100295.84
2022-09-09T16:59:22.898Z,100282.00
2022-09-09T17:01:53.376Z,100289.22
2022-09-09T17:04:27.225Z,100284.09
2022-09-09T17:06:56.837Z,100278.91
2022-09-09T17:09:29.728Z,100271.97
2022-09-09T17:11:58.161Z,100275.78
2022-09-09T17:14:26.648Z,100273.13
2022-09-09T17:16:54.878Z,100282.25
2022-09-09T17:19:24.445Z,100288.50
2022-09-09T17:24:41.368Z,100279.94
2022-09-09T17:27:10.023Z,100284.41
2022-09-09T17:29:38.486Z,100288.97
2022-09-09T17:32:08.087Z,100285.47
2022-09-09T17:34:38.863Z,100278.44
2022-09-09T17:37:07.892Z,100283.75
2022-09-09T17:39:36.547Z,100294.38
2022-09-09T17:42:05.202Z,100290.78
2022-09-09T17:44:34.236Z,100294.38
2022-09-09T17:47:04.884Z,100312.03
2022-09-09T17:49:33.042Z,100319.44
2022-09-09T17:52:02.857Z,100335.38
2022-09-09T17:54:31.053Z,100327.72
2022-09-09T17:57:00.588Z,100325.63
2022-09-09T17:59:29.130Z,100341.25
2022-09-09T18:01:57.952Z,100350.84
2022-09-09T18:04:26.756Z,100354.91
2022-09-09T18:06:55.580Z,100352.53
2022-09-09T18:09:27.480Z,100349.06
2022-09-09T18:12:00.193Z,100367.53
2022-09-09T18:14:32.045Z,100363.84
2022-09-09T18:17:01.476Z,100378.53
2022-09-09T18:19:32.815Z,100382.41
2022-09-09T18:22:02.771Z,100381.88
2022-09-09T18:24:33.348Z,100380.41
2022-09-09T18:27:01.975Z,100375.19
2022-09-09T18:29:31.065Z,100384.88
2022-09-09T18:31:59.606Z,100388.41
2022-09-09T18:34:30.097Z,100392.00
2022-09-09T18:36:58.722Z,100385.00
2022-09-09T18:39:29.708Z,100386.81
2022-09-09T18:42:01.727Z,100378.00
2022-09-09T18:44:33.239Z,100387.66
2022-09-09T18:47:03.406Z,100393.69
2022-09-09T18:49:33.121Z,100392.84
2022-09-09T18:52:02.715Z,100395.44
2022-09-09T18:54:33.382Z,100399.91
2022-09-09T18:57:03.487Z,100396.47
2022-09-09T18:59:32.568Z,100397.41
2022-09-09T19:02:00.785Z,100399.09
2022-09-09T19:04:29.643Z,100400.75
2022-09-09T19:06:58.665Z,100401.56
2022-09-09T19:09:29.519Z,100400.56
2022-09-09T19:11:58.183Z,100430.41
2022-09-09T19:14:28.155Z,100458.34
2022-09-09T19:16:56.476Z,100464.31
2022-09-09T19:19:27.860Z,100468.63
2022-09-09T19:21:57.490Z,100463.38
2022-09-09T19:24:28.340Z,100469.50
2022-09-09T19:27:01.610Z,100459.78
2022-09-09T19:29:34.452Z,100460.59
2022-09-09T19:32:49.660Z,100452.53
2022-09-09T19:34:52.241Z,100447.16
2022-09-09T19:37:20.981Z,100441.88
2022-09-09T19:39:50.578Z,100438.31
2022-09-09T19:42:18.994Z,100439.09
2022-09-09T19:44:50.073Z,100441.69
2022-09-09T19:47:19.692Z,100438.03
2022-09-09T19:49:48.234Z,100426.56
2022-09-09T19:52:17.432Z,100419.56
2022-09-09T19:54:46.623Z,100423.06
2022-09-09T19:57:16.058Z,100416.06
2022-09-09T19:59:44.817Z,100417.78
2022-09-09T20:02:16.274Z,100423.06
2022-09-09T20:04:45.123Z,100430.06
2022-09-09T20:07:14.746Z,100416.78
2022-09-09T20:09:43.380Z,100424.69
2022-09-09T20:12:12.152Z,100422.94
2022-09-09T20:14:40.715Z,100433.41
2022-09-09T20:17:09.963Z,100439.53
2022-09-09T20:19:40.504Z,100442.13
2022-09-09T20:22:09.128Z,100435.91
2022-09-09T20:24:37.978Z,100428.00
2022-09-09T20:27:08.039Z,100432.34
2022-09-09T20:29:37.101Z,100431.44
2022-09-09T20:32:06.719Z,100428.69
2022-09-09T20:34:35.257Z,100421.53
2022-09-09T20:37:05.838Z,100425.78
2022-09-09T20:39:35.552Z,100418.66
2022-09-09T20:42:04.279Z,100421.25
2022-09-09T20:44:33.099Z,100425.50
2022-09-09T20:47:06.373Z,100429.88
2022-09-09T20:49:36.049Z,100431.66
2022-09-09T20:52:06.836Z,100426.38
2022-09-09T20:54:35.865Z,100432.56
2022-09-09T20:57:04.130Z,100428.38
2022-09-09T20:59:32.460Z,100427.50
2022-09-09T21:02:01.546Z,100419.66
2022-09-09T21:04:31.172Z,100424.06
2022-09-09T21:06:59.435Z,100418.78
2022-09-09T21:09:29.007Z,100424.06
2022-09-09T21:11:57.220Z,100423.28
2022-09-09T21:14:25.591Z,100428.38
2022-09-09T21:16:54.395Z,100429.22
2022-09-09T21:19:22.895Z,100429.16
2022-09-09T21:21:51.264Z,100433.66
2022-09-09T21:24:19.687Z,100428.38
2022-09-09T21:26:49.385Z,100419.66
2022-09-09T21:29:17.576Z,100419.66
2022-09-09T21:31:46.403Z,100416.25
2022-09-09T21:34:15.557Z,100419.03
2022-09-09T21:36:44.107Z,100425.22
2022-09-09T21:39:12.398Z,100415.63
2022-09-09T21:41:41.000Z,100419.22
2022-09-09T21:44:14.353Z,100418.38
2022-09-09T21:46:43.812Z,100421.91
2022-09-09T21:49:12.155Z,100416.63
2022-09-09T21:51:40.771Z,100411.34
2022-09-09T21:54:09.363Z,100408.78
2022-09-09T21:56:38.005Z,100409.66
2022-09-09T21:59:06.248Z,100408.84
2022-09-09T22:01:35.969Z,100414.13
2022-09-09T22:04:04.607Z,100415.06
2022-09-09T22:06:33.793Z,100419.56
2022-09-09T22:09:03.405Z,100417.94
2022-09-09T22:11:32.092Z,100417.03
2022-09-09T22:14:00.350Z,100410.06
2022-09-09T22:16:28.568Z,100407.44
2022-09-09T22:19:01.257Z,100394.22
2022-09-09T22:21:33.201Z,100402.16
2022-09-09T22:24:04.204Z,100397.72
2022-09-09T22:26:36.052Z,100401.22
2022-09-09T22:29:05.600Z,100394.09
2022-09-09T22:31:36.082Z,100392.25
2022-09-09T22:34:06.189Z,100392.09
2022-09-09T22:36:34.464Z,100402.53
2022-09-09T22:39:02.720Z,100406.81
2022-09-09T22:41:31.994Z,100405.81
2022-09-09T22:44:00.236Z,100404.03
2022-09-09T22:46:28.500Z,100400.41
2022-09-09T22:48:57.042Z,100403.94
2022-09-09T22:51:28.867Z,100403.94
2022-09-09T22:53:57.764Z,100408.47
2022-09-09T22:56:26.332Z,100415.50
2022-09-09T22:58:56.789Z,100419.06
2022-09-09T23:01:27.539Z,100414.66
2022-09-09T23:03:59.514Z,100413.78
2022-09-09T23:06:31.700Z,100405.94
2022-09-09T23:09:02.549Z,100415.63
2022-09-09T23:11:34.884Z,100415.72
2022-09-09T23:14:06.448Z,100413.13
2022-09-09T23:16:39.855Z,100412.44
2022-09-09T23:19:10.852Z,100413.38
2022-09-09T23:21:42.092Z,100418.66
2022-09-09T23:24:12.896Z,100423.97
2022-09-09T23:26:41.657Z,100432.84
2022-09-09T23:29:14.060Z,100431.03
2022-09-09T23:31:45.041Z,100419.63
2022-09-09T23:34:13.852Z,100418.69
2022-09-09T23:36:43.412Z,100417.84
2022-09-09T23:39:14.129Z,100413.38
2022-09-09T23:41:42.677Z,100421.19
2022-09-09T23:44:12.749Z,100428.22
2022-09-09T23:46:41.637Z,100425.50
2022-09-09T23:49:10.563Z,100414.94
2022-09-09T23:51:39.396Z,100419.28
2022-09-09T23:54:09.927Z,100415.72
2022-09-09T23:56:42.270Z,100411.22
2022-09-09T23:59:10.649Z,100418.22
